createdAt,value
2022-08-23T00:03:04.047Z,36.20
2022-08-23T00:06:10.399Z,38.45
2022-08-23T00:09:19.292Z,35.60
2022-08-23T00:12:25.166Z,34.42
2022-08-23T00:15:30.485Z,36.05
2022-08-23T00:18:35.733Z,35.03
2022-08-23T00:21:40.999Z,35.58
2022-08-23T00:24:49.860Z,41.10
2022-08-23T00:27:55.762Z,38.55
2022-08-23T00:31:01.239Z,47.78
2022-08-23T00:34:06.393Z,41.03
2022-08-23T00:37:12.538Z,35.90
2022-08-23T00:40:21.640Z,40.13
2022-08-23T00:43:42.805Z,48.50
2022-08-23T00:47:02.674Z,40.50
2022-08-23T00:50:19.169Z,41.13
2022-08-23T00:53:29.613Z,45.55
2022-08-23T00:56:39.611Z,41.75
2022-08-23T00:59:44.706Z,43.70
2022-08-23T01:02:51.448Z,43.17
2022-08-23T01:05:59.490Z,38.55
2022-08-23T01:09:06.773Z,42.00
2022-08-23T01:12:19.245Z,41.78
2022-08-23T01:15:40.368Z,40.75
2022-08-23T01:18:46.000Z,42.72
2022-08-23T01:21:55.373Z,43.58
2022-08-23T01:25:08.404Z,39.13
2022-08-23T01:28:19.249Z,39.17
2022-08-23T01:31:24.881Z,34.53
2022-08-23T01:34:30.923Z,38.67
2022-08-23T01:37:42.011Z,36.90
2022-08-23T01:40:50.508Z,36.55
2022-08-23T01:43:55.824Z,39.88
2022-08-23T01:47:03.589Z,41.08
2022-08-23T01:50:09.596Z,38.70
2022-08-23T01:53:14.589Z,41.88
2022-08-23T01:56:38.431Z,35.42
2022-08-23T01:59:49.410Z,35.75
2022-08-23T02:02:54.802Z,37.55
2022-08-23T02:06:00.890Z,33.85
2022-08-23T02:09:17.257Z,41.13
2022-08-23T02:15:35.889Z,35.13
2022-08-23T02:18:41.125Z,31.73
2022-08-23T02:21:46.783Z,36.47
2022-08-23T02:24:53.755Z,33.10
2022-08-23T02:27:58.846Z,34.08
2022-08-23T02:31:07.224Z,37.42
2022-08-23T02:34:15.624Z,34.78
2022-08-23T02:37:22.674Z,36.10
2022-08-23T02:40:28.659Z,31.77
2022-08-23T02:43:36.449Z,32.33
2022-08-23T02:46:46.541Z,35.75
2022-08-23T02:49:52.153Z,34.47
2022-08-23T02:52:57.208Z,34.75
2022-08-23T02:56:02.905Z,35.97
2022-08-23T02:59:09.077Z,37.28
2022-08-23T03:02:16.907Z,35.05
2022-08-23T03:05:22.316Z,39.05
2022-08-23T03:08:27.685Z,32.53
2022-08-23T03:11:33.741Z,32.15
2022-08-23T03:14:38.889Z,39.85
2022-08-23T03:17:47.238Z,33.78
2022-08-23T03:20:52.463Z,31.55
2022-08-23T03:23:57.992Z,32.10
2022-08-23T03:27:03.407Z,33.25
2022-08-23T03:30:09.543Z,35.13
2022-08-23T03:33:26.541Z,37.92
2022-08-23T03:36:32.094Z,36.60
2022-08-23T03:39:37.358Z,33.85
2022-08-23T03:42:42.596Z,32.53
2022-08-23T03:45:47.827Z,33.42
2022-08-23T03:48:57.484Z,38.75
2022-08-23T03:52:03.339Z,36.42
2022-08-23T03:55:10.250Z,34.80
2022-08-23T03:58:21.885Z,38.72
2022-08-23T04:01:28.712Z,35.35
2022-08-23T04:04:38.121Z,36.45
2022-08-23T04:08:10.270Z,32.58
2022-08-23T04:11:17.837Z,36.45
2022-08-23T04:14:31.813Z,35.38
2022-08-23T04:17:36.939Z,43.38
2022-08-23T04:20:45.995Z,38.10
2022-08-23T04:23:51.492Z,32.13
2022-08-23T04:26:57.153Z,36.55
2022-08-23T04:30:02.188Z,30.85
2022-08-23T04:33:11.249Z,32.63
2022-08-23T04:36:20.693Z,33.83
2022-08-23T04:39:28.314Z,31.85
2022-08-23T04:42:32.197Z,34.63
2022-08-23T04:45:38.111Z,31.35
2022-08-23T04:48:43.291Z,30.02
2022-08-23T04:51:53.526Z,30.33
2022-08-23T04:55:00.813Z,34.13
2022-08-23T04:58:32.057Z,31.48
2022-08-23T05:01:37.346Z,31.20
2022-08-23T05:04:42.582Z,28.40
2022-08-23T05:07:50.795Z,29.83
2022-08-23T05:10:56.157Z,32.92
2022-08-23T05:14:01.133Z,27.98
2022-08-23T05:17:06.339Z,31.88
2022-08-23T05:20:14.384Z,25.85
2022-08-23T05:23:23.568Z,28.05
2022-08-23T05:26:49.612Z,27.45
2022-08-23T05:29:55.511Z,26.92
2022-08-23T05:33:01.202Z,30.95
2022-08-23T05:36:08.651Z,32.15
2022-08-23T05:39:25.784Z,30.75
2022-08-23T05:42:41.299Z,23.85
2022-08-23T05:45:46.643Z,27.67
2022-08-23T05:48:53.567Z,21.35
2022-08-23T05:52:01.306Z,30.73
2022-08-23T05:55:12.734Z,28.00
2022-08-23T05:58:20.741Z,27.27
2022-08-23T06:01:26.170Z,24.40
2022-08-23T06:04:34.732Z,33.47
2022-08-23T06:07:39.699Z,25.63
2022-08-23T06:10:48.213Z,25.55
2022-08-23T06:14:04.771Z,32.08
2022-08-23T06:17:10.936Z,20.65
2022-08-23T06:20:16.281Z,25.30
2022-08-23T06:23:39.493Z,35.30
2022-08-23T06:26:48.358Z,24.92
2022-08-23T06:29:53.584Z,29.63
2022-08-23T06:33:11.606Z,24.00
2022-08-23T06:39:50.497Z,28.77
2022-08-23T06:43:18.974Z,23.15
2022-08-23T06:46:33.576Z,23.40
2022-08-23T06:49:39.068Z,18.98
2022-08-23T06:52:45.728Z,25.70
2022-08-23T06:56:30.020Z,60.08
2022-08-23T06:59:47.227Z,22.63
2022-08-23T07:03:24.865Z,25.75
2022-08-23T07:06:48.430Z,33.13
2022-08-23T07:09:53.711Z,44.92
2022-08-23T07:12:58.975Z,24.92
2022-08-23T07:16:07.439Z,26.27
2022-08-23T07:19:12.758Z,29.70
2022-08-23T07:22:19.916Z,24.45
2022-08-23T07:25:27.040Z,29.73
2022-08-23T07:28:36.244Z,28.27
2022-08-23T07:31:45.586Z,29.88
2022-08-23T07:34:50.781Z,23.83
2022-08-23T07:37:56.229Z,28.08
2022-08-23T07:44:10.170Z,27.00
2022-08-23T07:47:18.822Z,32.25
2022-08-23T07:53:37.509Z,27.35
2022-08-23T07:56:45.495Z,31.17
2022-08-23T08:00:07.918Z,21.42
2022-08-23T08:03:30.931Z,24.98
2022-08-23T08:06:59.807Z,27.00
2022-08-23T08:10:15.586Z,21.70
2022-08-23T08:13:20.836Z,23.27
2022-08-23T08:16:27.830Z,29.00
2022-08-23T08:19:35.818Z,25.45
2022-08-23T08:23:01.089Z,29.55
2022-08-23T08:26:15.603Z,24.33
2022-08-23T08:29:29.961Z,29.23
2022-08-23T08:32:35.821Z,21.33
2022-08-23T08:35:44.131Z,23.75
2022-08-23T08:38:51.212Z,19.55
2022-08-23T08:42:10.028Z,23.52
2022-08-23T08:45:18.652Z,21.17
2022-08-23T08:48:25.502Z,19.58
2022-08-23T08:51:39.385Z,16.50
2022-08-23T08:54:48.157Z,21.38
2022-08-23T08:57:55.616Z,19.35
2022-08-23T09:01:01.417Z,17.80
2022-08-23T09:04:07.672Z,18.33
2022-08-23T09:07:22.028Z,18.25
2022-08-23T09:10:44.681Z,13.93
2022-08-23T09:14:07.530Z,19.92
2022-08-23T09:17:20.809Z,18.02
2022-08-23T09:20:32.944Z,18.33
2022-08-23T09:23:44.578Z,28.23
2022-08-23T09:26:55.135Z,16.80
2022-08-23T09:30:03.661Z,22.45
2022-08-23T09:33:18.685Z,16.83
2022-08-23T09:36:25.770Z,15.63
2022-08-23T09:39:41.200Z,19.10
2022-08-23T09:43:05.689Z,14.63
2022-08-23T09:46:11.823Z,16.90
2022-08-23T09:49:25.541Z,15.35
2022-08-23T09:52:36.700Z,25.35
2022-08-23T09:55:46.441Z,18.23
2022-08-23T09:58:54.134Z,15.90
2022-08-23T10:02:27.391Z,17.25
2022-08-23T10:05:40.083Z,15.60
2022-08-23T10:08:55.185Z,18.60
2022-08-23T10:12:05.030Z,14.75
2022-08-23T10:15:14.754Z,18.02
2022-08-23T10:18:26.869Z,15.55
2022-08-23T10:21:41.163Z,16.50
2022-08-23T10:24:48.455Z,18.92
2022-08-23T10:28:23.824Z,12.68
2022-08-23T10:31:35.446Z,10.95
2022-08-23T10:34:50.436Z,19.75
2022-08-23T10:38:02.794Z,16.80
2022-08-23T10:41:16.341Z,15.20
2022-08-23T10:44:29.625Z,13.20
2022-08-23T10:47:37.986Z,11.07
2022-08-23T10:50:55.994Z,15.23
2022-08-23T10:54:06.535Z,17.88
2022-08-23T10:57:12.687Z,14.05
2022-08-23T11:00:22.867Z,18.02
2022-08-23T11:03:31.283Z,18.40
2022-08-23T11:06:53.262Z,16.75
2022-08-23T11:10:01.227Z,14.15
2022-08-23T11:13:21.131Z,15.05
2022-08-23T11:16:32.620Z,15.27
2022-08-23T11:19:52.868Z,10.45
2022-08-23T11:23:14.592Z,12.80
2022-08-23T11:26:36.928Z,15.98
2022-08-23T11:29:43.923Z,8.93
2022-08-23T11:33:17.154Z,7.63
2022-08-23T11:36:24.166Z,8.80
2022-08-23T11:39:29.448Z,8.07
2022-08-23T11:42:47.682Z,8.77
2022-08-23T11:45:53.999Z,10.27
2022-08-23T11:49:05.216Z,11.90
2022-08-23T11:52:19.395Z,16.30
2022-08-23T11:55:34.861Z,9.07
2022-08-23T11:58:54.155Z,12.95
2022-08-23T12:01:59.660Z,10.98
2022-08-23T12:05:10.819Z,9.85
2022-08-23T12:08:29.822Z,9.20
2022-08-23T12:11:49.852Z,8.82
2022-08-23T12:14:56.955Z,12.63
2022-08-23T12:18:23.897Z,14.25
2022-08-23T12:21:34.866Z,8.38
2022-08-23T12:24:46.785Z,7.20
2022-08-23T12:27:53.373Z,8.75
2022-08-23T12:31:07.561Z,9.70
2022-08-23T12:34:18.758Z,10.23
2022-08-23T12:37:31.617Z,9.40
2022-08-23T12:40:42.117Z,6.82
2022-08-23T12:43:56.956Z,8.45
2022-08-23T12:47:12.258Z,9.18
2022-08-23T12:50:32.538Z,9.75
2022-08-23T12:53:45.122Z,10.35
2022-08-23T12:56:51.159Z,9.18
2022-08-23T13:00:17.120Z,11.85
2022-08-23T13:03:25.151Z,12.65
2022-08-23T13:06:32.344Z,9.27
2022-08-23T13:09:41.517Z,6.93
2022-08-23T13:12:46.889Z,7.30
2022-08-23T13:15:53.907Z,10.40
2022-08-23T13:18:59.477Z,10.75
2022-08-23T13:22:14.976Z,13.32
2022-08-23T13:25:32.140Z,16.33
2022-08-23T13:28:37.781Z,8.93
2022-08-23T13:32:02.696Z,7.95
2022-08-23T13:35:23.999Z,8.93
2022-08-23T13:38:33.813Z,9.35
2022-08-23T13:41:41.834Z,8.43
2022-08-23T13:44:46.903Z,9.77
2022-08-23T13:47:53.770Z,8.45
2022-08-23T13:51:18.760Z,8.00
2022-08-23T13:54:23.848Z,9.52
2022-08-23T13:57:32.482Z,10.27
2022-08-23T14:00:37.720Z,11.80
2022-08-23T14:03:42.807Z,15.52
2022-08-23T14:06:49.135Z,12.20
2022-08-23T14:09:55.302Z,12.20
2022-08-23T14:23:11.805Z,13.38
2022-08-23T14:29:23.315Z,13.35
2022-08-23T14:32:31.051Z,13.95
2022-08-23T14:35:36.547Z,21.10
2022-08-23T14:38:42.389Z,15.00
2022-08-23T14:41:52.018Z,11.37
2022-08-23T14:44:57.468Z,9.45
2022-08-23T14:48:05.809Z,10.15
2022-08-23T14:51:17.458Z,12.63
2022-08-23T14:54:24.407Z,12.50
2022-08-23T14:57:29.435Z,14.68
2022-08-23T15:00:35.609Z,13.93
2022-08-23T15:03:44.172Z,12.68
2022-08-23T15:07:16.254Z,11.30
2022-08-23T15:13:55.394Z,11.35
2022-08-23T15:17:01.411Z,13.68
2022-08-23T15:20:09.872Z,13.32
2022-08-23T15:23:15.341Z,14.95
2022-08-23T15:26:24.159Z,16.42
2022-08-23T15:29:29.696Z,17.00
2022-08-23T15:32:35.012Z,11.32
2022-08-23T15:35:47.473Z,9.98
2022-08-23T15:38:52.933Z,12.60
2022-08-23T15:41:58.242Z,12.07
2022-08-23T15:45:03.368Z,17.27
2022-08-23T15:48:10.239Z,15.60
2022-08-23T15:51:18.331Z,16.35
2022-08-23T15:54:23.601Z,11.95
2022-08-23T15:57:31.696Z,18.67
2022-08-23T16:00:37.405Z,14.05
2022-08-23T16:03:43.731Z,13.30
2022-08-23T16:06:51.380Z,11.88
2022-08-23T16:09:56.655Z,14.20
2022-08-23T16:13:01.802Z,15.95
2022-08-23T16:16:07.386Z,11.57
2022-08-23T16:19:12.910Z,13.43
2022-08-23T16:22:21.569Z,93.53
2022-08-23T16:28:32.185Z,12.50
2022-08-23T16:31:40.036Z,12.07
2022-08-23T16:37:52.702Z,16.27
2022-08-23T16:44:03.113Z,12.68
2022-08-23T16:47:10.213Z,17.20
2022-08-23T16:50:15.899Z,9.10
2022-08-23T16:53:23.821Z,11.48
2022-08-23T16:59:40.334Z,12.68
2022-08-23T17:02:46.165Z,20.08
2022-08-23T17:05:51.507Z,18.05
2022-08-23T17:08:59.175Z,19.38
2022-08-23T17:15:10.765Z,22.27
2022-08-23T17:18:15.793Z,22.80
2022-08-23T17:21:21.316Z,22.70
2022-08-23T17:24:29.095Z,27.40
2022-08-23T17:30:39.222Z,34.20
2022-08-23T17:33:44.358Z,37.55
2022-08-23T17:36:51.202Z,38.97
2022-08-23T17:39:58.903Z,43.60
2022-08-23T17:43:04.689Z,43.05
2022-08-23T17:46:10.244Z,45.70
2022-08-23T17:49:15.727Z,54.17
2022-08-23T17:52:21.308Z,45.92
2022-08-23T17:55:28.935Z,69.32
2022-08-23T17:58:35.218Z,69.78
2022-08-23T18:01:40.559Z,65.75
2022-08-23T18:04:45.648Z,76.72
2022-08-23T18:07:50.957Z,68.45
2022-08-23T18:10:58.707Z,69.40
2022-08-23T18:14:03.934Z,68.85
2022-08-23T18:17:08.992Z,77.38
2022-08-23T18:20:14.513Z,63.63
2022-08-23T18:23:19.761Z,65.45
2022-08-23T18:26:40.379Z,62.80
2022-08-23T18:29:51.521Z,63.70
2022-08-23T18:32:57.717Z,59.38
2022-08-23T18:36:02.762Z,54.15
2022-08-23T18:39:08.989Z,62.72
2022-08-23T18:42:16.752Z,53.85
2022-08-23T18:48:27.446Z,53.33
2022-08-23T18:51:32.875Z,44.97
2022-08-23T18:54:38.087Z,49.30
2022-08-23T18:57:45.768Z,44.13
2022-08-23T19:00:51.143Z,48.90
2022-08-23T19:03:57.240Z,47.50
2022-08-23T19:07:02.344Z,46.55
2022-08-23T19:10:08.137Z,46.30
2022-08-23T19:13:15.818Z,45.05
2022-08-23T19:16:22.061Z,50.60
2022-08-23T19:19:27.346Z,45.45
2022-08-23T19:22:32.588Z,49.22
2022-08-23T19:25:38.739Z,49.20
2022-08-23T19:28:46.541Z,47.88
2022-08-23T19:34:56.662Z,41.83
2022-08-23T19:38:01.975Z,46.38
2022-08-23T19:41:07.171Z,44.60
2022-08-23T19:44:15.534Z,44.05
2022-08-23T19:47:28.695Z,47.90
2022-08-23T19:50:34.094Z,40.50
2022-08-23T19:53:39.391Z,42.65
2022-08-23T19:56:47.062Z,43.88
2022-08-23T19:59:54.921Z,38.15
2022-08-23T20:03:00.265Z,45.25
2022-08-23T20:06:05.557Z,44.50
2022-08-23T20:09:10.940Z,40.95
2022-08-23T20:12:16.730Z,39.92
2022-08-23T20:15:24.679Z,41.35
2022-08-23T20:21:34.763Z,40.85
2022-08-23T20:24:51.673Z,37.63
2022-08-23T20:27:57.858Z,32.15
2022-08-23T20:31:18.291Z,41.72
2022-08-23T20:34:26.485Z,35.92
2022-08-23T20:37:32.626Z,38.25
2022-08-23T20:40:37.785Z,39.38
2022-08-23T20:43:42.797Z,39.83
2022-08-23T20:46:53.897Z,35.95
2022-08-23T20:49:59.785Z,32.55
2022-08-23T20:53:09.730Z,28.95
2022-08-23T20:56:14.821Z,43.72
2022-08-23T20:59:19.964Z,37.70
2022-08-23T21:02:27.567Z,28.95
2022-08-23T21:05:32.757Z,36.75
2022-08-23T21:08:43.354Z,34.30
2022-08-23T21:11:49.147Z,33.78
2022-08-23T21:14:56.913Z,33.08
2022-08-23T21:18:05.069Z,28.63
2022-08-23T21:21:10.582Z,37.88
2022-08-23T21:24:16.307Z,28.83
2022-08-23T21:27:21.762Z,34.72
2022-08-23T21:30:26.907Z,31.27
2022-08-23T21:33:39.309Z,31.73
2022-08-23T21:36:45.417Z,33.42
2022-08-23T21:39:51.339Z,27.33
2022-08-23T21:42:56.532Z,30.40
2022-08-23T21:46:02.417Z,28.80
2022-08-23T21:49:12.359Z,31.90
2022-08-23T21:52:17.874Z,23.95
2022-08-23T21:55:23.243Z,24.65
2022-08-23T21:58:41.741Z,27.08
2022-08-23T22:01:47.473Z,20.40
2022-08-23T22:04:55.084Z,24.98
2022-08-23T22:08:00.284Z,22.95
2022-08-23T22:11:08.444Z,22.85
2022-08-23T22:14:14.675Z,19.38
2022-08-23T22:17:20.048Z,21.42
2022-08-23T22:20:27.980Z,20.17
2022-08-23T22:23:33.254Z,26.55
2022-08-23T22:26:38.196Z,23.40
2022-08-23T22:29:43.361Z,18.13
2022-08-23T22:32:52.070Z,21.52
2022-08-23T22:36:04.326Z,19.02
2022-08-23T22:39:09.602Z,18.55
2022-08-23T22:42:16.549Z,29.02
2022-08-23T22:45:21.809Z,19.63
2022-08-23T22:48:27.180Z,30.38
2022-08-23T22:51:36.550Z,23.00
2022-08-23T22:54:41.680Z,22.10
2022-08-23T22:57:46.794Z,22.38
2022-08-23T23:00:51.963Z,24.17
2022-08-23T23:03:58.146Z,22.27
2022-08-23T23:07:06.788Z,21.35
2022-08-23T23:10:12.556Z,27.20
2022-08-23T23:13:17.870Z,30.52
2022-08-23T23:16:23.892Z,24.45
2022-08-23T23:19:41.457Z,28.13
2022-08-23T23:22:52.135Z,20.67
2022-08-23T23:25:57.369Z,25.67
2022-08-23T23:29:03.062Z,27.77
2022-08-23T23:32:08.237Z,22.60
2022-08-23T23:35:14.347Z,29.55
2022-08-23T23:38:22.211Z,24.27
2022-08-23T23:41:27.697Z,28.83
2022-08-23T23:44:32.846Z,23.23
2022-08-23T23:47:38.264Z,27.48
2022-08-23T23:50:46.535Z,27.23
2022-08-23T23:53:56.047Z,22.52
2022-08-23T23:57:01.134Z,22.70
